Florence, Indiana
Current Conditions -  °F | °C
As of 3:52 PM on Tuesday 21 Oct 2014 (Local Time) from KCVG Reporting Station
Overcast Overcast  
Wind Chill: 12°   Ceiling: 4700
Heat Index: 12°   Visibility: 10mi
Dew Point:   Wind: 10mph
Humidity: 59%   Direction: 360°N
Pressure: 30.06"   Gusts: NA
Location:  38.78°N, 84.92°W
Report Text: KCVG 211952Z 36009KT 10SM OVC047 12/04 A3006 RMK AO2 SLP177 T01170039
Loading
Personal Weather Stations






























Interactive Weather Map
Tropical Storm Tracking
New forecast layout! Learn more

10-Day Weather Forecast

Advertisements
Track Severe Weather on mobile